sensor_id;sensor_type;location;lat;lon;timestamp;temperature;humidity
4874;DHT22;2451;49.970;9.068;2022-12-07T00:01:35;3.10;99.90
4874;DHT22;2451;49.970;9.068;2022-12-07T00:04:03;3.10;99.90
4874;DHT22;2451;49.970;9.068;2022-12-07T00:06:37;3.10;99.90
4874;DHT22;2451;49.970;9.068;2022-12-07T00:09:08;3.10;99.90
4874;DHT22;2451;49.970;9.068;2022-12-07T00:11:34;3.10;99.90
4874;DHT22;2451;49.970;9.068;2022-12-07T00:14:02;3.10;99.90
4874;DHT22;2451;49.970;9.068;2022-12-07T00:16:31;3.10;99.90
4874;DHT22;2451;49.970;9.068;2022-12-07T00:18:57;3.10;99.90
4874;DHT22;2451;49.970;9.068;2022-12-07T00:21:26;3.00;99.90
4874;DHT22;2451;49.970;9.068;2022-12-07T00:23:53;3.00;99.90
4874;DHT22;2451;49.970;9.068;2022-12-07T00:26:20;3.00;99.90
4874;DHT22;2451;49.970;9.068;2022-12-07T00:28:53;3.00;99.90
4874;DHT22;2451;49.970;9.068;2022-12-07T00:31:22;3.10;99.90
4874;DHT22;2451;49.970;9.068;2022-12-07T00:33:49;3.10;99.90
4874;DHT22;2451;49.970;9.068;2022-12-07T00:36:17;3.10;99.90
4874;DHT22;2451;49.970;9.068;2022-12-07T00:38:44;3.10;99.90
4874;DHT22;2451;49.970;9.068;2022-12-07T00:41:13;3.10;99.90
4874;DHT22;2451;49.970;9.068;2022-12-07T00:43:40;3.10;99.90
4874;DHT22;2451;49.970;9.068;2022-12-07T00:46:07;3.10;99.90
4874;DHT22;2451;49.970;9.068;2022-12-07T00:48:32;3.10;99.90
4874;DHT22;2451;49.970;9.068;2022-12-07T00:50:58;3.20;99.90
4874;DHT22;2451;49.970;9.068;2022-12-07T00:53:25;3.20;99.90
4874;DHT22;2451;49.970;9.068;2022-12-07T00:55:51;3.20;99.90
4874;DHT22;2451;49.970;9.068;2022-12-07T00:58:18;3.20;99.90
4874;DHT22;2451;49.970;9.068;2022-12-07T01:00:44;3.30;99.90
4874;DHT22;2451;49.970;9.068;2022-12-07T01:03:11;3.30;99.90
4874;DHT22;2451;49.970;9.068;2022-12-07T01:05:38;3.20;99.90
4874;DHT22;2451;49.970;9.068;2022-12-07T01:08:04;3.20;99.90
4874;DHT22;2451;49.970;9.068;2022-12-07T01:10:30;3.20;99.90
4874;DHT22;2451;49.970;9.068;2022-12-07T01:12:57;3.20;99.90
4874;DHT22;2451;49.970;9.068;2022-12-07T01:15:22;3.30;99.90
4874;DHT22;2451;49.970;9.068;2022-12-07T01:17:48;3.30;99.90
4874;DHT22;2451;49.970;9.068;2022-12-07T01:20:14;3.30;99.90
4874;DHT22;2451;49.970;9.068;2022-12-07T01:22:42;3.30;99.90
4874;DHT22;2451;49.970;9.068;2022-12-07T01:25:09;3.30;99.90
4874;DHT22;2451;49.970;9.068;2022-12-07T01:27:36;3.20;99.90
4874;DHT22;2451;49.970;9.068;2022-12-07T01:30:06;3.20;99.90
4874;DHT22;2451;49.970;9.068;2022-12-07T01:32:32;3.20;99.90
4874;DHT22;2451;49.970;9.068;2022-12-07T01:34:58;3.20;99.90
4874;DHT22;2451;49.970;9.068;2022-12-07T01:37:23;3.20;99.90
4874;DHT22;2451;49.970;9.068;2022-12-07T01:39:50;3.20;99.90
4874;DHT22;2451;49.970;9.068;2022-12-07T01:42:16;3.10;99.90
4874;DHT22;2451;49.970;9.068;2022-12-07T01:47:54;3.20;99.90
4874;DHT22;2451;49.970;9.068;2022-12-07T01:50:22;3.20;99.90
4874;DHT22;2451;49.970;9.068;2022-12-07T01:52:50;3.20;99.90
4874;DHT22;2451;49.970;9.068;2022-12-07T01:55:16;3.20;99.90
4874;DHT22;2451;49.970;9.068;2022-12-07T01:57:47;3.30;99.90
4874;DHT22;2451;49.970;9.068;2022-12-07T02:00:14;3.30;99.90
4874;DHT22;2451;49.970;9.068;2022-12-07T02:02:47;3.30;99.90
4874;DHT22;2451;49.970;9.068;2022-12-07T02:05:14;3.30;99.90
4874;DHT22;2451;49.970;9.068;2022-12-07T02:07:40;3.30;99.90
4874;DHT22;2451;49.970;9.068;2022-12-07T02:10:21;3.30;99.90
4874;DHT22;2451;49.970;9.068;2022-12-07T02:12:50;3.30;99.90
4874;DHT22;2451;49.970;9.068;2022-12-07T02:15:18;3.40;99.90
4874;DHT22;2451;49.970;9.068;2022-12-07T02:21:58;3.30;99.90
4874;DHT22;2451;49.970;9.068;2022-12-07T02:29:40;3.40;99.90
4874;DHT22;2451;49.970;9.068;2022-12-07T02:32:15;3.40;99.90
4874;DHT22;2451;49.970;9.068;2022-12-07T02:34:55;3.50;99.90
4874;DHT22;2451;49.970;9.068;2022-12-07T02:37:44;3.50;99.90
4874;DHT22;2451;49.970;9.068;2022-12-07T02:40:35;3.50;99.90
4874;DHT22;2451;49.970;9.068;2022-12-07T02:45:36;3.60;99.90
4874;DHT22;2451;49.970;9.068;2022-12-07T02:48:04;3.60;99.90
4874;DHT22;2451;49.970;9.068;2022-12-07T02:50:32;3.60;99.90
4874;DHT22;2451;49.970;9.068;2022-12-07T02:52:57;3.60;99.90
4874;DHT22;2451;49.970;9.068;2022-12-07T02:55:30;3.60;99.90
4874;DHT22;2451;49.970;9.068;2022-12-07T02:58:06;3.60;99.90
4874;DHT22;2451;49.970;9.068;2022-12-07T03:00:54;3.60;99.90
4874;DHT22;2451;49.970;9.068;2022-12-07T03:03:24;3.60;99.90
4874;DHT22;2451;49.970;9.068;2022-12-07T03:06:22;3.70;99.90
4874;DHT22;2451;49.970;9.068;2022-12-07T03:09:06;3.70;99.90
4874;DHT22;2451;49.970;9.068;2022-12-07T03:11:50;3.70;99.90
4874;DHT22;2451;49.970;9.068;2022-12-07T03:14:38;3.60;99.90
4874;DHT22;2451;49.970;9.068;2022-12-07T03:17:18;3.60;99.90
4874;DHT22;2451;49.970;9.068;2022-12-07T03:19:46;3.60;99.90
4874;DHT22;2451;49.970;9.068;2022-12-07T03:22:15;3.60;99.90
4874;DHT22;2451;49.970;9.068;2022-12-07T03:24:55;3.60;99.90
4874;DHT22;2451;49.970;9.068;2022-12-07T03:27:27;3.60;99.90
4874;DHT22;2451;49.970;9.068;2022-12-07T03:30:02;3.70;99.90
4874;DHT22;2451;49.970;9.068;2022-12-07T03:32:33;3.70;99.90
4874;DHT22;2451;49.970;9.068;2022-12-07T03:35:05;3.70;99.90
4874;DHT22;2451;49.970;9.068;2022-12-07T03:37:43;3.70;99.90
4874;DHT22;2451;49.970;9.068;2022-12-07T03:40:19;3.80;99.90
4874;DHT22;2451;49.970;9.068;2022-12-07T03:42:48;3.80;99.90
4874;DHT22;2451;49.970;9.068;2022-12-07T03:45:16;3.80;99.90
4874;DHT22;2451;49.970;9.068;2022-12-07T03:47:48;3.80;99.90
4874;DHT22;2451;49.970;9.068;2022-12-07T03:53:18;3.90;99.90
4874;DHT22;2451;49.970;9.068;2022-12-07T03:55:46;3.90;99.90
4874;DHT22;2451;49.970;9.068;2022-12-07T03:58:15;3.90;99.90
4874;DHT22;2451;49.970;9.068;2022-12-07T04:00:43;3.90;99.90
4874;DHT22;2451;49.970;9.068;2022-12-07T04:03:10;3.90;99.90
4874;DHT22;2451;49.970;9.068;2022-12-07T04:05:36;3.80;99.90
4874;DHT22;2451;49.970;9.068;2022-12-07T04:08:02;3.80;99.90
4874;DHT22;2451;49.970;9.068;2022-12-07T04:10:28;3.80;99.90
4874;DHT22;2451;49.970;9.068;2022-12-07T04:12:53;3.80;99.90
4874;DHT22;2451;49.970;9.068;2022-12-07T04:15:19;3.80;99.90
4874;DHT22;2451;49.970;9.068;2022-12-07T04:17:45;3.80;99.90
4874;DHT22;2451;49.970;9.068;2022-12-07T04:20:11;3.80;99.90
4874;DHT22;2451;49.970;9.068;2022-12-07T04:22:36;3.80;99.90
4874;DHT22;2451;49.970;9.068;2022-12-07T04:25:02;3.80;99.90
4874;DHT22;2451;49.970;9.068;2022-12-07T04:27:28;3.80;99.90
4874;DHT22;2451;49.970;9.068;2022-12-07T04:29:53;3.80;99.90
4874;DHT22;2451;49.970;9.068;2022-12-07T04:32:21;3.80;99.90
4874;DHT22;2451;49.970;9.068;2022-12-07T04:34:47;3.80;99.90
4874;DHT22;2451;49.970;9.068;2022-12-07T04:37:12;3.80;99.90
4874;DHT22;2451;49.970;9.068;2022-12-07T04:39:38;3.80;99.90
4874;DHT22;2451;49.970;9.068;2022-12-07T04:42:03;3.80;99.90
4874;DHT22;2451;49.970;9.068;2022-12-07T04:44:30;3.70;99.90
4874;DHT22;2451;49.970;9.068;2022-12-07T04:46:56;3.70;99.90
4874;DHT22;2451;49.970;9.068;2022-12-07T04:49:23;3.70;99.90
4874;DHT22;2451;49.970;9.068;2022-12-07T04:51:49;3.70;99.90
4874;DHT22;2451;49.970;9.068;2022-12-07T04:54:15;3.70;99.90
4874;DHT22;2451;49.970;9.068;2022-12-07T04:56:40;3.80;99.90
4874;DHT22;2451;49.970;9.068;2022-12-07T04:59:06;3.80;99.90
4874;DHT22;2451;49.970;9.068;2022-12-07T05:01:33;3.70;99.90
4874;DHT22;2451;49.970;9.068;2022-12-07T05:03:59;3.70;99.90
4874;DHT22;2451;49.970;9.068;2022-12-07T05:06:25;3.70;99.90
4874;DHT22;2451;49.970;9.068;2022-12-07T05:08:51;3.80;99.90
4874;DHT22;2451;49.970;9.068;2022-12-07T05:11:17;3.80;99.90
4874;DHT22;2451;49.970;9.068;2022-12-07T05:14:02;3.70;99.90
4874;DHT22;2451;49.970;9.068;2022-12-07T05:16:28;3.70;99.90
4874;DHT22;2451;49.970;9.068;2022-12-07T05:18:54;3.70;99.90
4874;DHT22;2451;49.970;9.068;2022-12-07T05:21:20;3.70;99.90
4874;DHT22;2451;49.970;9.068;2022-12-07T05:23:45;3.70;99.90
4874;DHT22;2451;49.970;9.068;2022-12-07T05:26:11;3.70;99.90
4874;DHT22;2451;49.970;9.068;2022-12-07T05:28:37;3.60;99.90
4874;DHT22;2451;49.970;9.068;2022-12-07T05:31:02;3.70;99.90
4874;DHT22;2451;49.970;9.068;2022-12-07T05:33:28;3.70;99.90
4874;DHT22;2451;49.970;9.068;2022-12-07T05:35:54;3.70;99.90
4874;DHT22;2451;49.970;9.068;2022-12-07T05:38:19;3.70;99.90
4874;DHT22;2451;49.970;9.068;2022-12-07T05:40:45;3.70;99.90
4874;DHT22;2451;49.970;9.068;2022-12-07T05:43:11;3.70;99.90
4874;DHT22;2451;49.970;9.068;2022-12-07T05:45:36;3.70;99.90
4874;DHT22;2451;49.970;9.068;2022-12-07T05:48:02;3.70;99.90
4874;DHT22;2451;49.970;9.068;2022-12-07T05:50:28;3.70;99.90
4874;DHT22;2451;49.970;9.068;2022-12-07T05:52:53;3.60;99.90
4874;DHT22;2451;49.970;9.068;2022-12-07T05:55:19;3.60;99.90
4874;DHT22;2451;49.970;9.068;2022-12-07T05:57:45;3.60;99.90
4874;DHT22;2451;49.970;9.068;2022-12-07T06:00:30;3.60;99.90
4874;DHT22;2451;49.970;9.068;2022-12-07T06:02:56;3.60;99.90
4874;DHT22;2451;49.970;9.068;2022-12-07T06:05:22;3.70;99.90
4874;DHT22;2451;49.970;9.068;2022-12-07T06:07:47;3.70;99.90
4874;DHT22;2451;49.970;9.068;2022-12-07T06:10:13;3.70;99.90
4874;DHT22;2451;49.970;9.068;2022-12-07T06:12:39;3.70;99.90
4874;DHT22;2451;49.970;9.068;2022-12-07T06:15:08;3.70;99.90
4874;DHT22;2451;49.970;9.068;2022-12-07T06:17:34;3.70;99.90
4874;DHT22;2451;49.970;9.068;2022-12-07T06:19:59;3.70;99.90
4874;DHT22;2451;49.970;9.068;2022-12-07T06:22:25;3.70;99.90
4874;DHT22;2451;49.970;9.068;2022-12-07T06:24:50;3.70;99.90
4874;DHT22;2451;49.970;9.068;2022-12-07T06:27:16;3.70;99.90
4874;DHT22;2451;49.970;9.068;2022-12-07T06:29:42;3.70;99.90
4874;DHT22;2451;49.970;9.068;2022-12-07T06:32:08;3.70;99.90
4874;DHT22;2451;49.970;9.068;2022-12-07T06:34:34;3.80;99.90
4874;DHT22;2451;49.970;9.068;2022-12-07T06:36:59;3.70;99.90
4874;DHT22;2451;49.970;9.068;2022-12-07T06:39:26;3.70;99.90
4874;DHT22;2451;49.970;9.068;2022-12-07T06:41:52;3.70;99.90
4874;DHT22;2451;49.970;9.068;2022-12-07T06:44:20;3.80;99.90
4874;DHT22;2451;49.970;9.068;2022-12-07T06:46:46;3.80;99.90
4874;DHT22;2451;49.970;9.068;2022-12-07T06:49:11;3.90;99.90
4874;DHT22;2451;49.970;9.068;2022-12-07T06:51:37;3.90;99.90
4874;DHT22;2451;49.970;9.068;2022-12-07T06:54:10;3.90;99.90
4874;DHT22;2451;49.970;9.068;2022-12-07T06:56:36;3.90;99.90
4874;DHT22;2451;49.970;9.068;2022-12-07T06:59:02;3.90;99.90
4874;DHT22;2451;49.970;9.068;2022-12-07T07:01:28;3.90;99.90
4874;DHT22;2451;49.970;9.068;2022-12-07T07:03:54;3.90;99.90
4874;DHT22;2451;49.970;9.068;2022-12-07T07:06:20;3.90;99.90
4874;DHT22;2451;49.970;9.068;2022-12-07T07:08:45;3.90;99.90
4874;DHT22;2451;49.970;9.068;2022-12-07T07:11:12;3.90;99.90
4874;DHT22;2451;49.970;9.068;2022-12-07T07:13:37;3.90;99.90
4874;DHT22;2451;49.970;9.068;2022-12-07T07:16:03;3.90;99.90
4874;DHT22;2451;49.970;9.068;2022-12-07T07:18:29;4.00;99.90
4874;DHT22;2451;49.970;9.068;2022-12-07T07:20:55;4.00;99.90
4874;DHT22;2451;49.970;9.068;2022-12-07T07:23:21;3.90;99.90
4874;DHT22;2451;49.970;9.068;2022-12-07T07:25:47;4.00;99.90
4874;DHT22;2451;49.970;9.068;2022-12-07T07:28:14;3.90;99.90
4874;DHT22;2451;49.970;9.068;2022-12-07T07:30:40;3.90;99.90
4874;DHT22;2451;49.970;9.068;2022-12-07T07:33:05;3.90;99.90
4874;DHT22;2451;49.970;9.068;2022-12-07T07:35:32;4.00;99.90
4874;DHT22;2451;49.970;9.068;2022-12-07T07:37:58;4.00;99.90
4874;DHT22;2451;49.970;9.068;2022-12-07T07:40:24;4.00;99.90
4874;DHT22;2451;49.970;9.068;2022-12-07T07:42:54;4.00;99.90
4874;DHT22;2451;49.970;9.068;2022-12-07T07:45:21;4.10;99.90
4874;DHT22;2451;49.970;9.068;2022-12-07T07:47:47;4.10;99.90
4874;DHT22;2451;49.970;9.068;2022-12-07T07:50:13;4.10;99.90
4874;DHT22;2451;49.970;9.068;2022-12-07T07:52:38;4.10;99.90
4874;DHT22;2451;49.970;9.068;2022-12-07T07:55:05;4.10;99.90
4874;DHT22;2451;49.970;9.068;2022-12-07T07:57:30;4.10;99.90
4874;DHT22;2451;49.970;9.068;2022-12-07T07:59:56;4.10;99.90
4874;DHT22;2451;49.970;9.068;2022-12-07T08:02:21;4.10;99.90
4874;DHT22;2451;49.970;9.068;2022-12-07T08:04:47;4.10;99.90
4874;DHT22;2451;49.970;9.068;2022-12-07T08:07:14;4.10;99.90
4874;DHT22;2451;49.970;9.068;2022-12-07T08:09:40;4.10;99.90
4874;DHT22;2451;49.970;9.068;2022-12-07T08:12:05;4.20;99.90
4874;DHT22;2451;49.970;9.068;2022-12-07T08:14:31;4.30;99.90
4874;DHT22;2451;49.970;9.068;2022-12-07T08:16:57;4.20;99.90
4874;DHT22;2451;49.970;9.068;2022-12-07T08:19:23;4.30;99.90
4874;DHT22;2451;49.970;9.068;2022-12-07T08:21:49;4.30;99.90
4874;DHT22;2451;49.970;9.068;2022-12-07T08:24:15;4.40;99.90
4874;DHT22;2451;49.970;9.068;2022-12-07T08:26:40;4.40;99.90
4874;DHT22;2451;49.970;9.068;2022-12-07T08:29:06;4.40;99.90
4874;DHT22;2451;49.970;9.068;2022-12-07T08:31:32;4.40;99.90
4874;DHT22;2451;49.970;9.068;2022-12-07T08:33:58;4.50;99.90
4874;DHT22;2451;49.970;9.068;2022-12-07T08:36:24;4.50;99.90
4874;DHT22;2451;49.970;9.068;2022-12-07T08:38:50;4.50;99.90
4874;DHT22;2451;49.970;9.068;2022-12-07T08:41:16;4.50;99.90
4874;DHT22;2451;49.970;9.068;2022-12-07T08:43:42;4.60;99.90
4874;DHT22;2451;49.970;9.068;2022-12-07T08:46:12;4.60;99.90
4874;DHT22;2451;49.970;9.068;2022-12-07T08:49:01;4.60;99.90
4874;DHT22;2451;49.970;9.068;2022-12-07T08:51:28;4.70;99.90
4874;DHT22;2451;49.970;9.068;2022-12-07T08:53:54;4.70;99.90
4874;DHT22;2451;49.970;9.068;2022-12-07T08:56:21;4.80;99.90
4874;DHT22;2451;49.970;9.068;2022-12-07T08:58:47;4.80;99.90
4874;DHT22;2451;49.970;9.068;2022-12-07T09:01:13;4.90;99.90
4874;DHT22;2451;49.970;9.068;2022-12-07T09:03:39;4.90;99.90
4874;DHT22;2451;49.970;9.068;2022-12-07T09:06:04;4.90;99.90
4874;DHT22;2451;49.970;9.068;2022-12-07T09:08:34;5.00;99.90
4874;DHT22;2451;49.970;9.068;2022-12-07T09:11:00;5.00;99.90
4874;DHT22;2451;49.970;9.068;2022-12-07T09:13:26;5.00;99.90
4874;DHT22;2451;49.970;9.068;2022-12-07T09:15:51;5.00;99.90
4874;DHT22;2451;49.970;9.068;2022-12-07T09:18:17;5.10;99.90
4874;DHT22;2451;49.970;9.068;2022-12-07T09:20:42;5.10;99.90
4874;DHT22;2451;49.970;9.068;2022-12-07T09:23:08;5.10;99.90
4874;DHT22;2451;49.970;9.068;2022-12-07T09:25:34;5.10;99.90
4874;DHT22;2451;49.970;9.068;2022-12-07T09:28:00;5.20;99.90
4874;DHT22;2451;49.970;9.068;2022-12-07T09:30:27;5.20;99.90
4874;DHT22;2451;49.970;9.068;2022-12-07T09:32:54;5.30;99.90
4874;DHT22;2451;49.970;9.068;2022-12-07T09:35:20;5.40;99.90
4874;DHT22;2451;49.970;9.068;2022-12-07T09:37:46;5.40;99.90
4874;DHT22;2451;49.970;9.068;2022-12-07T09:40:13;5.40;99.90
4874;DHT22;2451;49.970;9.068;2022-12-07T09:42:43;5.40;99.90
4874;DHT22;2451;49.970;9.068;2022-12-07T09:45:34;5.40;99.90
4874;DHT22;2451;49.970;9.068;2022-12-07T09:48:00;5.40;99.90
4874;DHT22;2451;49.970;9.068;2022-12-07T09:50:27;5.40;99.90
4874;DHT22;2451;49.970;9.068;2022-12-07T09:53:02;5.40;99.90
4874;DHT22;2451;49.970;9.068;2022-12-07T09:55:29;5.40;99.90
4874;DHT22;2451;49.970;9.068;2022-12-07T09:57:57;5.40;99.90
4874;DHT22;2451;49.970;9.068;2022-12-07T10:00:24;5.40;99.90
4874;DHT22;2451;49.970;9.068;2022-12-07T10:02:57;5.50;99.90
4874;DHT22;2451;49.970;9.068;2022-12-07T10:05:36;5.60;99.90
4874;DHT22;2451;49.970;9.068;2022-12-07T10:08:03;6.30;99.90
4874;DHT22;2451;49.970;9.068;2022-12-07T10:10:33;7.00;99.90
4874;DHT22;2451;49.970;9.068;2022-12-07T10:13:03;7.60;99.90
4874;DHT22;2451;49.970;9.068;2022-12-07T10:15:47;8.20;99.90
4874;DHT22;2451;49.970;9.068;2022-12-07T10:18:31;8.70;99.90
4874;DHT22;2451;49.970;9.068;2022-12-07T10:21:03;9.10;99.90
4874;DHT22;2451;49.970;9.068;2022-12-07T10:23:29;9.60;99.90
4874;DHT22;2451;49.970;9.068;2022-12-07T10:25:55;10.00;99.90
4874;DHT22;2451;49.970;9.068;2022-12-07T10:28:21;10.10;99.90
4874;DHT22;2451;49.970;9.068;2022-12-07T10:30:59;10.10;99.90
4874;DHT22;2451;49.970;9.068;2022-12-07T10:33:38;10.40;99.90
4874;DHT22;2451;49.970;9.068;2022-12-07T10:36:21;11.10;99.90
4874;DHT22;2451;49.970;9.068;2022-12-07T10:39:11;11.50;99.90
4874;DHT22;2451;49.970;9.068;2022-12-07T10:42:02;12.00;99.90
4874;DHT22;2451;49.970;9.068;2022-12-07T10:44:33;11.80;99.90
4874;DHT22;2451;49.970;9.068;2022-12-07T10:47:25;11.50;99.90
4874;DHT22;2451;49.970;9.068;2022-12-07T10:55:12;10.70;99.90
4874;DHT22;2451;49.970;9.068;2022-12-07T11:00:24;9.80;99.90
4874;DHT22;2451;49.970;9.068;2022-12-07T11:03:18;9.30;99.90
4874;DHT22;2451;49.970;9.068;2022-12-07T11:09:00;9.10;99.90
4874;DHT22;2451;49.970;9.068;2022-12-07T11:11:38;8.90;99.90
4874;DHT22;2451;49.970;9.068;2022-12-07T11:22:20;7.80;99.90
4874;DHT22;2451;49.970;9.068;2022-12-07T11:27:47;7.50;99.90
4874;DHT22;2451;49.970;9.068;2022-12-07T11:30:18;7.50;99.90
4874;DHT22;2451;49.970;9.068;2022-12-07T11:38:17;8.20;99.90
4874;DHT22;2451;49.970;9.068;2022-12-07T11:40:48;8.40;99.90
4874;DHT22;2451;49.970;9.068;2022-12-07T11:43:30;8.60;99.90
4874;DHT22;2451;49.970;9.068;2022-12-07T11:48:41;8.30;99.90
4874;DHT22;2451;49.970;9.068;2022-12-07T11:51:11;8.10;99.90
4874;DHT22;2451;49.970;9.068;2022-12-07T11:53:53;8.00;99.90
4874;DHT22;2451;49.970;9.068;2022-12-07T11:56:21;8.10;99.90
4874;DHT22;2451;49.970;9.068;2022-12-07T12:03:47;7.80;99.90
4874;DHT22;2451;49.970;9.068;2022-12-07T12:06:14;7.70;99.90
4874;DHT22;2451;49.970;9.068;2022-12-07T12:09:25;7.60;99.90
4874;DHT22;2451;49.970;9.068;2022-12-07T12:20:32;7.30;99.90
4874;DHT22;2451;49.970;9.068;2022-12-07T12:23:17;7.30;99.90
4874;DHT22;2451;49.970;9.068;2022-12-07T12:25:47;7.20;99.90
4874;DHT22;2451;49.970;9.068;2022-12-07T12:28:22;7.20;99.90
4874;DHT22;2451;49.970;9.068;2022-12-07T12:31:05;7.20;99.90
4874;DHT22;2451;49.970;9.068;2022-12-07T12:33:32;7.20;99.90
4874;DHT22;2451;49.970;9.068;2022-12-07T12:39:08;7.10;99.90
4874;DHT22;2451;49.970;9.068;2022-12-07T12:51:43;6.90;99.90
4874;DHT22;2451;49.970;9.068;2022-12-07T12:59:29;7.00;99.90
4874;DHT22;2451;49.970;9.068;2022-12-07T13:02:22;7.10;99.90
4874;DHT22;2451;49.970;9.068;2022-12-07T13:15:54;7.10;99.90
4874;DHT22;2451;49.970;9.068;2022-12-07T13:18:35;7.10;99.90
4874;DHT22;2451;49.970;9.068;2022-12-07T13:21:01;7.60;99.90
4874;DHT22;2451;49.970;9.068;2022-12-07T13:23:52;7.80;99.90
4874;DHT22;2451;49.970;9.068;2022-12-07T13:26:20;7.80;99.90
4874;DHT22;2451;49.970;9.068;2022-12-07T13:31:39;7.30;99.90
4874;DHT22;2451;49.970;9.068;2022-12-07T13:39:56;7.00;99.90
4874;DHT22;2451;49.970;9.068;2022-12-07T13:42:30;6.90;99.90
4874;DHT22;2451;49.970;9.068;2022-12-07T13:44:57;6.80;99.90
4874;DHT22;2451;49.970;9.068;2022-12-07T13:47:41;6.70;99.90
4874;DHT22;2451;49.970;9.068;2022-12-07T13:50:24;6.70;99.90
4874;DHT22;2451;49.970;9.068;2022-12-07T13:52:50;6.60;99.90
4874;DHT22;2451;49.970;9.068;2022-12-07T13:55:17;6.50;99.90
4874;DHT22;2451;49.970;9.068;2022-12-07T13:57:46;6.50;99.90
4874;DHT22;2451;49.970;9.068;2022-12-07T14:00:25;6.60;99.90
4874;DHT22;2451;49.970;9.068;2022-12-07T14:03:03;6.60;99.90
4874;DHT22;2451;49.970;9.068;2022-12-07T14:05:34;6.60;99.90
4874;DHT22;2451;49.970;9.068;2022-12-07T14:10:41;6.60;99.90
4874;DHT22;2451;49.970;9.068;2022-12-07T14:15:56;6.40;99.90
4874;DHT22;2451;49.970;9.068;2022-12-07T14:23:37;6.00;99.90
4874;DHT22;2451;49.970;9.068;2022-12-07T14:26:14;5.90;99.90
4874;DHT22;2451;49.970;9.068;2022-12-07T14:28:42;5.90;99.90
4874;DHT22;2451;49.970;9.068;2022-12-07T14:33:38;5.90;99.90
4874;DHT22;2451;49.970;9.068;2022-12-07T14:36:04;5.90;99.90
4874;DHT22;2451;49.970;9.068;2022-12-07T14:38:30;5.90;99.90
4874;DHT22;2451;49.970;9.068;2022-12-07T14:40:56;5.90;99.90
4874;DHT22;2451;49.970;9.068;2022-12-07T14:43:45;5.90;99.90
4874;DHT22;2451;49.970;9.068;2022-12-07T14:46:11;5.90;99.90
4874;DHT22;2451;49.970;9.068;2022-12-07T14:48:36;5.90;99.90
4874;DHT22;2451;49.970;9.068;2022-12-07T14:51:02;5.90;99.90
4874;DHT22;2451;49.970;9.068;2022-12-07T14:53:33;5.90;99.90
4874;DHT22;2451;49.970;9.068;2022-12-07T14:55:59;5.80;99.90
4874;DHT22;2451;49.970;9.068;2022-12-07T14:58:25;5.80;99.90
4874;DHT22;2451;49.970;9.068;2022-12-07T15:00:51;5.70;99.90
4874;DHT22;2451;49.970;9.068;2022-12-07T15:03:16;5.70;99.90
4874;DHT22;2451;49.970;9.068;2022-12-07T15:05:42;5.60;99.90
4874;DHT22;2451;49.970;9.068;2022-12-07T15:08:12;5.60;99.90
4874;DHT22;2451;49.970;9.068;2022-12-07T15:10:38;5.60;99.90
4874;DHT22;2451;49.970;9.068;2022-12-07T15:13:05;5.50;99.90
4874;DHT22;2451;49.970;9.068;2022-12-07T15:15:52;5.40;99.90
4874;DHT22;2451;49.970;9.068;2022-12-07T15:18:19;5.40;99.90
4874;DHT22;2451;49.970;9.068;2022-12-07T15:20:45;5.40;99.90
4874;DHT22;2451;49.970;9.068;2022-12-07T15:23:11;5.40;99.90
4874;DHT22;2451;49.970;9.068;2022-12-07T15:25:40;5.30;99.90
4874;DHT22;2451;49.970;9.068;2022-12-07T15:28:06;5.20;99.90
4874;DHT22;2451;49.970;9.068;2022-12-07T15:30:32;5.10;99.90
4874;DHT22;2451;49.970;9.068;2022-12-07T15:32:57;5.10;99.90
4874;DHT22;2451;49.970;9.068;2022-12-07T15:35:23;5.10;99.90
4874;DHT22;2451;49.970;9.068;2022-12-07T15:37:48;5.00;99.90
4874;DHT22;2451;49.970;9.068;2022-12-07T15:40:14;5.00;99.90
4874;DHT22;2451;49.970;9.068;2022-12-07T15:42:40;5.00;99.90
4874;DHT22;2451;49.970;9.068;2022-12-07T15:45:07;5.10;99.90
4874;DHT22;2451;49.970;9.068;2022-12-07T15:47:38;5.00;99.90
4874;DHT22;2451;49.970;9.068;2022-12-07T15:50:06;5.00;99.90
4874;DHT22;2451;49.970;9.068;2022-12-07T15:52:32;5.00;99.90
4874;DHT22;2451;49.970;9.068;2022-12-07T15:54:59;5.00;99.90
4874;DHT22;2451;49.970;9.068;2022-12-07T15:57:26;5.00;99.90
4874;DHT22;2451;49.970;9.068;2022-12-07T15:59:51;5.00;99.90
4874;DHT22;2451;49.970;9.068;2022-12-07T16:02:18;5.00;99.90
4874;DHT22;2451;49.970;9.068;2022-12-07T16:04:43;5.00;99.90
4874;DHT22;2451;49.970;9.068;2022-12-07T16:07:09;5.00;99.90
4874;DHT22;2451;49.970;9.068;2022-12-07T16:09:36;4.90;99.90
4874;DHT22;2451;49.970;9.068;2022-12-07T16:12:02;4.90;99.90
4874;DHT22;2451;49.970;9.068;2022-12-07T16:14:28;4.90;99.90
4874;DHT22;2451;49.970;9.068;2022-12-07T16:16:53;4.80;99.90
4874;DHT22;2451;49.970;9.068;2022-12-07T16:19:19;4.80;99.90
4874;DHT22;2451;49.970;9.068;2022-12-07T16:21:44;4.80;99.90
4874;DHT22;2451;49.970;9.068;2022-12-07T16:24:10;4.70;99.90
4874;DHT22;2451;49.970;9.068;2022-12-07T16:26:37;4.80;99.90
4874;DHT22;2451;49.970;9.068;2022-12-07T16:29:03;4.80;99.90
4874;DHT22;2451;49.970;9.068;2022-12-07T16:31:29;4.80;99.90
4874;DHT22;2451;49.970;9.068;2022-12-07T16:33:56;4.80;99.90
4874;DHT22;2451;49.970;9.068;2022-12-07T16:36:22;4.70;99.90
4874;DHT22;2451;49.970;9.068;2022-12-07T16:38:50;4.80;99.90
4874;DHT22;2451;49.970;9.068;2022-12-07T16:41:15;4.70;99.90
4874;DHT22;2451;49.970;9.068;2022-12-07T16:43:41;4.70;99.90
4874;DHT22;2451;49.970;9.068;2022-12-07T16:46:07;4.70;99.90
4874;DHT22;2451;49.970;9.068;2022-12-07T16:48:36;4.60;99.90
4874;DHT22;2451;49.970;9.068;2022-12-07T16:51:08;4.60;99.90
4874;DHT22;2451;49.970;9.068;2022-12-07T16:53:35;4.50;99.90
4874;DHT22;2451;49.970;9.068;2022-12-07T16:56:01;4.60;99.90
4874;DHT22;2451;49.970;9.068;2022-12-07T16:58:27;4.50;99.90
4874;DHT22;2451;49.970;9.068;2022-12-07T17:00:53;4.50;99.90
4874;DHT22;2451;49.970;9.068;2022-12-07T17:03:19;4.50;99.90
4874;DHT22;2451;49.970;9.068;2022-12-07T17:05:45;4.40;99.90
4874;DHT22;2451;49.970;9.068;2022-12-07T17:08:12;4.40;99.90
4874;DHT22;2451;49.970;9.068;2022-12-07T17:10:40;4.40;99.90
4874;DHT22;2451;49.970;9.068;2022-12-07T17:13:06;4.40;99.90
4874;DHT22;2451;49.970;9.068;2022-12-07T17:16:04;4.40;99.90
4874;DHT22;2451;49.970;9.068;2022-12-07T17:18:32;4.40;99.90
4874;DHT22;2451;49.970;9.068;2022-12-07T17:21:04;4.40;99.90
4874;DHT22;2451;49.970;9.068;2022-12-07T17:23:31;4.40;99.90
4874;DHT22;2451;49.970;9.068;2022-12-07T17:26:07;4.40;99.90
4874;DHT22;2451;49.970;9.068;2022-12-07T17:28:34;4.40;99.90
4874;DHT22;2451;49.970;9.068;2022-12-07T17:31:00;4.30;99.90
4874;DHT22;2451;49.970;9.068;2022-12-07T17:33:26;4.30;99.90
4874;DHT22;2451;49.970;9.068;2022-12-07T17:35:51;4.30;99.90
4874;DHT22;2451;49.970;9.068;2022-12-07T17:38:17;4.30;99.90
4874;DHT22;2451;49.970;9.068;2022-12-07T17:40:42;4.30;99.90
4874;DHT22;2451;49.970;9.068;2022-12-07T17:43:08;4.30;99.90
4874;DHT22;2451;49.970;9.068;2022-12-07T17:45:33;4.30;99.90
4874;DHT22;2451;49.970;9.068;2022-12-07T17:48:01;4.30;99.90
4874;DHT22;2451;49.970;9.068;2022-12-07T17:50:26;4.30;99.90
4874;DHT22;2451;49.970;9.068;2022-12-07T17:53:11;4.30;99.90
4874;DHT22;2451;49.970;9.068;2022-12-07T17:55:37;4.30;99.90
4874;DHT22;2451;49.970;9.068;2022-12-07T17:58:03;4.40;99.90
4874;DHT22;2451;49.970;9.068;2022-12-07T18:00:29;4.30;99.90
4874;DHT22;2451;49.970;9.068;2022-12-07T18:02:55;4.30;99.90
4874;DHT22;2451;49.970;9.068;2022-12-07T18:05:21;4.30;99.90
4874;DHT22;2451;49.970;9.068;2022-12-07T18:07:46;4.20;99.90
4874;DHT22;2451;49.970;9.068;2022-12-07T18:10:12;4.20;99.90
4874;DHT22;2451;49.970;9.068;2022-12-07T18:12:38;4.20;99.90
4874;DHT22;2451;49.970;9.068;2022-12-07T18:15:05;4.20;99.90
4874;DHT22;2451;49.970;9.068;2022-12-07T18:17:31;4.20;99.90
4874;DHT22;2451;49.970;9.068;2022-12-07T18:19:56;4.20;99.90
4874;DHT22;2451;49.970;9.068;2022-12-07T18:22:22;4.30;99.90